createdAt,value
2023-05-19T00:02:00.300Z,102685.69
2023-05-19T00:04:27.749Z,102691.47
2023-05-19T00:06:54.699Z,102690.00
2023-05-19T00:09:21.550Z,102691.63
2023-05-19T00:11:48.356Z,102683.94
2023-05-19T00:14:15.339Z,102689.09
2023-05-19T00:16:42.826Z,102681.56
2023-05-19T00:19:12.407Z,102677.00
2023-05-19T00:21:39.106Z,102687.00
2023-05-19T00:24:06.371Z,102681.16
2023-05-19T00:26:33.062Z,102681.25
2023-05-19T00:28:59.804Z,102686.44
2023-05-19T00:31:26.375Z,102676.03
2023-05-19T00:33:52.856Z,102673.53
2023-05-19T00:36:19.414Z,102676.69
2023-05-19T00:38:45.898Z,102680.75
2023-05-19T00:41:12.438Z,102683.59
2023-05-19T00:43:39.063Z,102666.22
2023-05-19T00:46:05.600Z,102659.09
2023-05-19T00:48:32.093Z,102666.13
2023-05-19T00:51:04.271Z,102664.94
2023-05-19T00:53:32.329Z,102669.22
2023-05-19T00:56:00.114Z,102666.78
2023-05-19T00:58:30.461Z,102668.34
2023-05-19T01:01:03.323Z,102669.97
2023-05-19T01:03:35.637Z,102674.44
2023-05-19T01:06:06.250Z,102670.78
2023-05-19T01:08:33.675Z,102670.53
2023-05-19T01:11:00.396Z,102664.69
2023-05-19T01:13:30.741Z,102667.13
2023-05-19T01:16:19.354Z,102666.34
2023-05-19T01:19:01.733Z,102666.34
2023-05-19T01:21:50.193Z,102667.84
2023-05-19T01:24:39.133Z,102662.31
2023-05-19T01:27:20.852Z,102674.50
2023-05-19T01:30:27.577Z,102668.16
2023-05-19T01:32:58.707Z,102664.78
2023-05-19T01:35:26.247Z,102671.72
2023-05-19T01:37:56.212Z,102674.41
2023-05-19T01:40:24.412Z,102669.31
2023-05-19T01:42:53.421Z,102673.13
2023-05-19T01:45:21.594Z,102665.88
2023-05-19T01:47:51.833Z,102675.63
2023-05-19T01:50:18.482Z,102683.97
2023-05-19T01:52:44.990Z,102688.19
2023-05-19T01:55:11.605Z,102685.91
2023-05-19T01:57:46.667Z,102688.13
2023-05-19T02:00:13.255Z,102683.91
2023-05-19T02:02:48.970Z,102697.81
2023-05-19T02:05:35.761Z,102694.56
2023-05-19T02:08:10.212Z,102695.09
2023-05-19T02:10:37.486Z,102691.19
2023-05-19T02:13:05.140Z,102684.16
2023-05-19T02:15:39.376Z,102677.84
2023-05-19T02:18:06.399Z,102683.00
2023-05-19T02:20:33.311Z,102684.19
2023-05-19T02:23:00.050Z,102683.53
2023-05-19T02:25:27.233Z,102683.28
2023-05-19T02:27:54.762Z,102677.97
2023-05-19T02:30:21.285Z,102679.66
2023-05-19T02:32:48.016Z,102674.63
2023-05-19T02:35:14.691Z,102688.19
2023-05-19T02:37:41.393Z,102692.31
2023-05-19T02:40:08.484Z,102689.81
2023-05-19T02:42:34.992Z,102687.84
2023-05-19T02:45:01.495Z,102690.38
2023-05-19T02:47:28.122Z,102690.81
2023-05-19T02:49:54.752Z,102684.63
2023-05-19T02:52:21.249Z,102689.47
2023-05-19T02:54:47.744Z,102684.63
2023-05-19T02:57:14.238Z,102679.28
2023-05-19T02:59:41.142Z,102680.78
2023-05-19T03:02:07.818Z,102678.75
2023-05-19T03:04:41.554Z,102668.63
2023-05-19T03:07:10.011Z,102670.97
2023-05-19T03:09:39.765Z,102674.28
2023-05-19T03:12:07.572Z,102678.19
2023-05-19T03:14:38.651Z,102660.88
2023-05-19T03:17:07.865Z,102667.19
2023-05-19T03:19:34.590Z,102660.41
2023-05-19T03:22:01.122Z,102663.72
2023-05-19T03:24:27.709Z,102668.56
2023-05-19T03:26:54.255Z,102668.16
2023-05-19T03:29:21.540Z,102673.84
2023-05-19T03:31:48.060Z,102674.09
2023-05-19T03:34:14.581Z,102669.53
2023-05-19T03:36:41.043Z,102675.25
2023-05-19T03:39:07.568Z,102680.53
2023-05-19T03:41:34.056Z,102676.84
2023-05-19T03:44:01.618Z,102684.50
2023-05-19T03:46:28.464Z,102677.00
2023-05-19T03:48:55.083Z,102685.22
2023-05-19T03:51:21.593Z,102681.09
2023-05-19T03:53:48.815Z,102680.69
2023-05-19T03:56:16.835Z,102674.44
2023-05-19T03:58:44.520Z,102678.78
2023-05-19T04:01:11.370Z,102673.88
2023-05-19T04:03:37.913Z,102678.53
2023-05-19T04:06:04.618Z,102681.47
2023-05-19T04:08:31.993Z,102678.78
2023-05-19T04:10:58.539Z,102678.53
2023-05-19T04:13:25.097Z,102675.25
2023-05-19T04:15:51.683Z,102687.44
2023-05-19T04:18:18.233Z,102682.44
2023-05-19T04:20:44.757Z,102693.41
2023-05-19T04:23:11.330Z,102693.94
2023-05-19T04:25:38.226Z,102693.25
2023-05-19T04:28:04.786Z,102688.56
2023-05-19T04:30:31.730Z,102687.00
2023-05-19T04:32:59.838Z,102683.22
2023-05-19T04:35:26.864Z,102689.34
2023-05-19T04:37:56.162Z,102694.38
2023-05-19T04:40:23.894Z,102691.63
2023-05-19T04:42:54.133Z,102697.16
2023-05-19T04:45:20.691Z,102695.38
2023-05-19T04:47:48.187Z,102696.72
2023-05-19T04:50:16.401Z,102688.88
2023-05-19T04:52:45.475Z,102690.31
2023-05-19T04:55:13.354Z,102689.34
2023-05-19T04:57:40.065Z,102690.88
2023-05-19T05:00:09.094Z,102693.88
2023-05-19T05:02:36.221Z,102688.56
2023-05-19T05:05:03.001Z,102693.53
2023-05-19T05:07:31.673Z,102696.56
2023-05-19T05:09:59.024Z,102701.44
2023-05-19T05:12:25.884Z,102697.56
2023-05-19T05:14:52.687Z,102692.28
2023-05-19T05:17:19.417Z,102697.94
2023-05-19T05:19:46.361Z,102692.31
2023-05-19T05:22:13.266Z,102687.00
2023-05-19T05:24:40.142Z,102686.31
2023-05-19T05:27:08.282Z,102688.75
2023-05-19T05:29:35.189Z,102692.47
2023-05-19T05:32:01.864Z,102693.44
2023-05-19T05:37:02.887Z,102696.84
2023-05-19T05:39:29.611Z,102687.78
2023-05-19T05:41:56.156Z,102696.06
2023-05-19T05:44:22.714Z,102689.06
2023-05-19T05:46:49.574Z,102699.06
2023-05-19T05:49:16.366Z,102691.56
2023-05-19T05:51:54.350Z,102701.00
2023-05-19T05:54:29.945Z,102694.03
2023-05-19T05:56:57.063Z,102687.28
2023-05-19T05:59:23.537Z,102694.59
2023-05-19T06:01:50.056Z,102685.88
2023-05-19T06:04:16.635Z,102694.06
2023-05-19T06:06:43.195Z,102683.41
2023-05-19T06:09:09.713Z,102685.28
2023-05-19T06:11:36.805Z,102697.84
2023-05-19T06:14:03.576Z,102689.69
2023-05-19T06:16:30.278Z,102684.47
2023-05-19T06:18:56.957Z,102687.91
2023-05-19T06:21:23.532Z,102680.63
2023-05-19T06:23:49.986Z,102683.97
2023-05-19T06:26:16.816Z,102695.44
2023-05-19T06:28:43.298Z,102686.22
2023-05-19T06:31:09.810Z,102677.19
2023-05-19T06:33:36.295Z,102679.44
2023-05-19T06:36:02.930Z,102683.91
2023-05-19T06:38:29.463Z,102677.00
2023-05-19T06:40:55.981Z,102683.25
2023-05-19T06:43:25.682Z,102687.59
2023-05-19T06:45:52.350Z,102690.81
2023-05-19T06:48:18.847Z,102687.16
2023-05-19T06:50:46.404Z,102691.03
2023-05-19T06:53:13.001Z,102692.44
2023-05-19T06:55:50.792Z,102691.28
2023-05-19T06:58:24.337Z,102690.25
2023-05-19T07:00:51.110Z,102699.06
2023-05-19T07:03:17.696Z,102695.03
2023-05-19T07:05:44.550Z,102698.25
2023-05-19T07:08:11.084Z,102704.84
2023-05-19T07:10:37.747Z,102692.41
2023-05-19T07:13:04.637Z,102696.72
2023-05-19T07:15:31.267Z,102699.91
2023-05-19T07:17:58.629Z,102699.53
2023-05-19T07:20:25.222Z,102694.72
2023-05-19T07:22:52.307Z,102699.53
2023-05-19T07:25:18.781Z,102688.25
2023-05-19T07:27:45.927Z,102699.00
2023-05-19T07:30:12.714Z,102696.00
2023-05-19T07:32:39.224Z,102700.03
2023-05-19T07:35:06.187Z,102698.41
2023-05-19T07:37:32.717Z,102700.03
2023-05-19T07:39:59.238Z,102697.38
2023-05-19T07:42:25.776Z,102693.66
2023-05-19T07:44:52.447Z,102684.53
2023-05-19T07:47:19.075Z,102688.59
2023-05-19T07:49:45.668Z,102680.84
2023-05-19T07:52:12.211Z,102685.03
2023-05-19T07:54:38.680Z,102685.47
2023-05-19T07:57:05.699Z,102693.25
2023-05-19T07:59:32.198Z,102683.34
2023-05-19T08:01:58.733Z,102683.00
2023-05-19T08:04:25.343Z,102682.63
2023-05-19T08:06:53.004Z,102676.25
2023-05-19T08:09:20.127Z,102679.09
2023-05-19T08:11:50.023Z,102681.00
2023-05-19T08:14:16.820Z,102681.31
2023-05-19T08:16:43.933Z,102686.88
2023-05-19T08:19:10.521Z,102680.91
2023-05-19T08:21:37.213Z,102675.16
2023-05-19T08:24:04.334Z,102667.41
2023-05-19T08:26:30.843Z,102675.25
2023-05-19T08:28:57.424Z,102675.75
2023-05-19T08:31:25.059Z,102679.44
2023-05-19T08:33:51.692Z,102676.00
2023-05-19T08:36:18.804Z,102679.34
2023-05-19T08:38:45.407Z,102677.47
2023-05-19T08:41:12.114Z,102668.09
2023-05-19T08:43:39.884Z,102669.13
2023-05-19T08:46:08.265Z,102669.00
2023-05-19T08:48:35.976Z,102659.81
2023-05-19T08:51:18.478Z,102658.84
2023-05-19T08:53:49.600Z,102654.97
2023-05-19T08:56:24.036Z,102655.50
2023-05-19T08:58:51.225Z,102656.78
2023-05-19T09:01:18.703Z,102656.91
2023-05-19T09:03:50.022Z,102648.47
2023-05-19T09:06:17.072Z,102654.25
2023-05-19T09:08:44.012Z,102651.09
2023-05-19T09:11:10.572Z,102648.88
2023-05-19T09:13:37.172Z,102643.13
2023-05-19T09:16:03.932Z,102640.75
2023-05-19T09:18:31.196Z,102637.72
2023-05-19T09:21:00.237Z,102640.66
2023-05-19T09:23:31.814Z,102641.19
2023-05-19T09:25:58.379Z,102634.84
2023-05-19T09:28:33.305Z,102633.19
2023-05-19T09:31:08.804Z,102626.38
2023-05-19T09:33:46.089Z,102638.94
2023-05-19T09:36:13.897Z,102632.59
2023-05-19T09:38:40.588Z,102634.44
2023-05-19T09:41:08.969Z,102625.91
2023-05-19T09:43:35.616Z,102640.72
2023-05-19T09:46:12.155Z,102633.06
2023-05-19T09:48:40.938Z,102623.53
2023-05-19T09:51:10.379Z,102620.50
2023-05-19T09:53:36.999Z,102618.19
2023-05-19T09:56:03.815Z,102620.84
2023-05-19T09:58:37.017Z,102618.72
2023-05-19T10:01:04.562Z,102627.84
2023-05-19T10:03:33.011Z,102619.59
2023-05-19T10:06:01.462Z,102614.06
2023-05-19T10:08:30.513Z,102609.19
2023-05-19T10:10:57.857Z,102606.72
2023-05-19T10:13:24.446Z,102606.59
2023-05-19T10:18:23.128Z,102602.31
2023-05-19T10:20:50.233Z,102609.91
2023-05-19T10:23:16.899Z,102599.41
2023-05-19T10:25:43.580Z,102595.22
2023-05-19T10:28:14.947Z,102595.25
2023-05-19T10:30:43.669Z,102588.09
2023-05-19T10:33:13.981Z,102588.09
2023-05-19T10:36:11.391Z,102599.66
2023-05-19T10:38:56.384Z,102590.81
2023-05-19T10:41:28.729Z,102589.84
2023-05-19T10:44:01.220Z,102593.47
2023-05-19T10:46:28.539Z,102593.28
2023-05-19T10:48:55.826Z,102585.56
2023-05-19T10:51:30.435Z,102584.66
2023-05-19T10:53:58.787Z,102582.00
2023-05-19T10:56:36.355Z,102575.69
2023-05-19T10:59:03.603Z,102573.81
2023-05-19T11:01:34.777Z,102576.69
2023-05-19T11:04:12.478Z,102575.81
2023-05-19T11:06:40.421Z,102572.31
2023-05-19T11:09:20.899Z,102562.13
2023-05-19T11:11:53.378Z,102572.13
2023-05-19T11:14:39.171Z,102576.72
2023-05-19T11:17:13.954Z,102568.69
2023-05-19T11:19:42.775Z,102575.81
2023-05-19T11:22:11.442Z,102570.47
2023-05-19T11:24:44.745Z,102570.47
2023-05-19T11:27:27.398Z,102559.88
2023-05-19T11:30:15.939Z,102566.13
2023-05-19T11:32:42.942Z,102569.63
2023-05-19T11:35:10.227Z,102558.06
2023-05-19T11:37:37.107Z,102558.81
2023-05-19T11:40:07.524Z,102559.78
2023-05-19T11:42:36.135Z,102560.81
2023-05-19T11:45:03.420Z,102559.91
2023-05-19T11:47:38.818Z,102553.69
2023-05-19T11:50:13.898Z,102553.59
2023-05-19T11:52:44.785Z,102556.34
2023-05-19T11:55:18.725Z,102549.31
2023-05-19T11:58:05.758Z,102554.63
2023-05-19T12:00:37.940Z,102549.31
2023-05-19T12:03:05.147Z,102553.50
2023-05-19T12:05:34.856Z,102555.53
2023-05-19T12:08:04.238Z,102541.03
2023-05-19T12:10:31.614Z,102535.19
2023-05-19T12:12:58.606Z,102541.97
2023-05-19T12:15:25.650Z,102540.94
2023-05-19T12:17:56.719Z,102544.94
2023-05-19T12:20:23.875Z,102538.69
2023-05-19T12:22:51.283Z,102528.34
2023-05-19T12:25:18.380Z,102530.81
2023-05-19T12:27:44.971Z,102528.91
2023-05-19T12:30:13.590Z,102536.72
2023-05-19T12:32:40.140Z,102535.09
2023-05-19T12:35:07.351Z,102536.91
2023-05-19T12:37:34.926Z,102529.19
2023-05-19T12:40:02.349Z,102515.44
2023-05-19T12:42:32.341Z,102525.13
2023-05-19T12:45:01.543Z,102521.88
2023-05-19T12:47:33.284Z,102531.25
2023-05-19T12:49:59.801Z,102524.50
2023-05-19T12:52:29.073Z,102520.81
2023-05-19T12:55:09.301Z,102509.06
2023-05-19T12:57:49.931Z,102521.09
2023-05-19T13:00:22.801Z,102507.75
2023-05-19T13:03:08.734Z,102512.97
2023-05-19T13:05:37.049Z,102512.09
2023-05-19T13:08:09.097Z,102501.53
2023-05-19T13:10:37.040Z,102511.25
2023-05-19T13:13:05.098Z,102497.22
2023-05-19T13:15:37.761Z,102500.75
2023-05-19T13:18:06.329Z,102502.31
2023-05-19T13:20:33.512Z,102501.59
2023-05-19T13:23:00.458Z,102498.16
2023-05-19T13:25:27.483Z,102500.78
2023-05-19T13:27:54.533Z,102500.72
2023-05-19T13:30:21.991Z,102489.00
2023-05-19T13:32:48.580Z,102498.75
2023-05-19T13:35:15.844Z,102490.72
2023-05-19T13:37:42.770Z,102491.91
2023-05-19T13:40:10.011Z,102498.88
2023-05-19T13:42:36.903Z,102489.63
2023-05-19T13:45:04.078Z,102490.75
2023-05-19T13:47:30.750Z,102487.97
2023-05-19T13:49:57.665Z,102487.50
2023-05-19T13:52:24.224Z,102482.25
2023-05-19T13:54:50.836Z,102478.72
2023-05-19T13:57:17.341Z,102487.59
2023-05-19T13:59:57.633Z,102479.63
2023-05-19T14:02:29.877Z,102470.81
2023-05-19T14:04:56.843Z,102472.53
2023-05-19T14:07:23.637Z,102475.13
2023-05-19T14:09:51.224Z,102471.69
2023-05-19T14:12:17.925Z,102475.19
2023-05-19T14:14:44.672Z,102468.03
2023-05-19T14:17:11.907Z,102470.72
2023-05-19T14:19:38.416Z,102483.00
2023-05-19T14:22:05.101Z,102474.31
2023-05-19T14:24:31.733Z,102481.25
2023-05-19T14:26:58.204Z,102477.59
2023-05-19T14:29:24.687Z,102475.19
2023-05-19T14:31:51.215Z,102475.16
2023-05-19T14:34:21.000Z,102475.19
2023-05-19T14:36:48.740Z,102483.09
2023-05-19T14:39:15.613Z,102486.34
2023-05-19T14:41:42.276Z,102487.09
2023-05-19T14:44:08.835Z,102488.84
2023-05-19T14:46:35.549Z,102492.44
2023-05-19T14:49:03.277Z,102497.00
2023-05-19T14:51:29.908Z,102488.88
2023-05-19T14:53:56.448Z,102486.09
2023-05-19T14:56:23.117Z,102500.50
2023-05-19T14:58:49.599Z,102498.38
2023-05-19T15:01:16.286Z,102495.72
2023-05-19T15:03:42.889Z,102496.56
2023-05-19T15:06:10.731Z,102487.25
2023-05-19T15:08:41.471Z,102493.41
2023-05-19T15:11:08.230Z,102494.34
2023-05-19T15:13:34.823Z,102495.72
2023-05-19T15:16:16.315Z,102492.88
2023-05-19T15:18:44.463Z,102483.94
2023-05-19T15:21:11.039Z,102484.97
2023-05-19T15:23:37.517Z,102486.09
2023-05-19T15:26:04.138Z,102480.66
2023-05-19T15:28:30.808Z,102475.38
2023-05-19T15:30:57.354Z,102479.75
2023-05-19T15:33:23.916Z,102472.66
2023-05-19T15:35:52.133Z,102471.22
2023-05-19T15:38:20.575Z,102473.84
2023-05-19T15:40:47.197Z,102472.00
2023-05-19T15:43:14.037Z,102480.72
2023-05-19T15:45:40.975Z,102466.34
2023-05-19T15:48:07.683Z,102466.63
2023-05-19T15:50:34.562Z,102466.56
2023-05-19T15:53:01.331Z,102471.69
2023-05-19T15:55:28.447Z,102463.09
2023-05-19T15:57:55.852Z,102468.53
2023-05-19T16:00:22.662Z,102467.47
2023-05-19T16:02:49.344Z,102467.34
2023-05-19T16:05:16.827Z,102465.75
2023-05-19T16:07:44.223Z,102464.84
2023-05-19T16:10:10.885Z,102457.34
2023-05-19T16:12:37.997Z,102470.72
2023-05-19T16:15:04.966Z,102463.00
2023-05-19T16:17:32.243Z,102470.56
2023-05-19T16:19:58.963Z,102465.19
2023-05-19T16:22:26.183Z,102466.59
2023-05-19T16:24:52.954Z,102472.38
2023-05-19T16:27:19.452Z,102465.19
2023-05-19T16:29:45.937Z,102460.09
2023-05-19T16:32:12.870Z,102466.91
2023-05-19T16:34:39.759Z,102460.31
2023-05-19T16:37:07.082Z,102470.53
2023-05-19T16:39:36.058Z,102477.41
2023-05-19T16:42:04.109Z,102468.19
2023-05-19T16:44:30.975Z,102466.78
2023-05-19T16:46:58.337Z,102471.06
2023-05-19T16:49:25.984Z,102461.50
2023-05-19T16:51:54.405Z,102466.78
2023-05-19T16:54:21.371Z,102468.00
2023-05-19T16:56:48.856Z,102461.16
2023-05-19T16:59:15.911Z,102459.34
2023-05-19T17:01:42.511Z,102463.47
2023-05-19T17:04:09.259Z,102472.34
2023-05-19T17:06:35.948Z,102465.47
2023-05-19T17:09:02.530Z,102469.66
2023-05-19T17:11:29.081Z,102478.31
2023-05-19T17:13:55.688Z,102472.66
2023-05-19T17:16:23.495Z,102471.78
2023-05-19T17:18:50.145Z,102474.03
2023-05-19T17:21:17.721Z,102476.97
2023-05-19T17:23:44.383Z,102470.94
2023-05-19T17:26:12.139Z,102463.31
2023-05-19T17:28:38.654Z,102465.88
2023-05-19T17:31:12.338Z,102459.56
2023-05-19T17:33:38.953Z,102465.09
2023-05-19T17:36:06.275Z,102468.66
2023-05-19T17:38:32.939Z,102459.47
2023-05-19T17:41:00.128Z,102463.72
2023-05-19T17:43:27.056Z,102462.63
2023-05-19T17:45:53.996Z,102471.78
2023-05-19T17:48:20.918Z,102455.78
2023-05-19T17:50:48.161Z,102464.31
2023-05-19T17:53:16.039Z,102480.31
2023-05-19T17:55:49.237Z,102473.53
2023-05-19T17:58:16.168Z,102474.47
2023-05-19T18:00:42.900Z,102481.44
2023-05-19T18:03:09.884Z,102483.97
2023-05-19T18:05:37.829Z,102482.91
2023-05-19T18:08:07.249Z,102480.56
2023-05-19T18:10:36.627Z,102484.41
2023-05-19T18:13:06.907Z,102487.22
2023-05-19T18:15:33.579Z,102497.41
2023-05-19T18:18:00.714Z,102491.53
2023-05-19T18:20:27.340Z,102489.84
2023-05-19T18:22:53.899Z,102490.56
2023-05-19T18:25:20.971Z,102494.88
2023-05-19T18:27:47.552Z,102495.00
2023-05-19T18:30:14.121Z,102488.53
2023-05-19T18:32:40.812Z,102494.31
2023-05-19T18:35:08.346Z,102503.91
2023-05-19T18:37:35.111Z,102499.31
2023-05-19T18:42:28.216Z,102508.47
2023-05-19T18:44:54.705Z,102517.16
2023-05-19T18:47:22.778Z,102513.81
2023-05-19T18:49:49.346Z,102512.78
2023-05-19T18:52:15.896Z,102514.94
2023-05-19T18:54:42.414Z,102520.63
2023-05-19T18:57:09.180Z,102518.34
2023-05-19T18:59:35.761Z,102520.59
2023-05-19T19:02:03.117Z,102523.88
2023-05-19T19:04:30.580Z,102526.13
2023-05-19T19:06:57.139Z,102529.44
2023-05-19T19:09:23.626Z,102531.56
2023-05-19T19:11:50.136Z,102540.53
2023-05-19T19:14:16.609Z,102534.47
2023-05-19T19:16:43.121Z,102541.97
2023-05-19T19:19:10.012Z,102541.22
2023-05-19T19:21:36.866Z,102538.56
2023-05-19T19:24:04.063Z,102544.91
2023-05-19T19:26:30.592Z,102538.63
2023-05-19T19:28:57.231Z,102548.09
2023-05-19T19:31:25.865Z,102543.41
2023-05-19T19:33:52.406Z,102548.78
2023-05-19T19:36:18.898Z,102543.47
2023-05-19T19:38:45.423Z,102549.44
2023-05-19T19:41:11.984Z,102558.06
2023-05-19T19:43:39.210Z,102565.81
2023-05-19T19:46:07.101Z,102559.78
2023-05-19T19:48:33.664Z,102566.53
2023-05-19T19:51:00.423Z,102562.47
2023-05-19T19:53:26.992Z,102566.53
2023-05-19T19:56:01.093Z,102564.69
2023-05-19T19:58:28.550Z,102564.53
2023-05-19T20:01:03.228Z,102563.09
2023-05-19T20:03:30.066Z,102564.59
2023-05-19T20:05:57.030Z,102566.91
2023-05-19T20:08:24.536Z,102573.63
2023-05-19T20:10:51.070Z,102570.81
2023-05-19T20:13:18.496Z,102582.59
2023-05-19T20:15:46.176Z,102581.91
2023-05-19T20:18:12.790Z,102585.69
2023-05-19T20:20:39.734Z,102581.78
2023-05-19T20:23:07.624Z,102582.38
2023-05-19T20:25:34.745Z,102586.44
2023-05-19T20:28:02.133Z,102587.31
2023-05-19T20:30:28.720Z,102586.63
2023-05-19T20:32:55.245Z,102577.59
2023-05-19T20:35:22.434Z,102585.63
2023-05-19T20:37:49.466Z,102585.56
2023-05-19T20:40:15.981Z,102586.69
2023-05-19T20:42:42.621Z,102585.44
2023-05-19T20:45:09.205Z,102591.34
2023-05-19T20:47:35.851Z,102595.91
2023-05-19T20:50:02.338Z,102592.22
2023-05-19T20:52:28.969Z,102597.91
2023-05-19T20:54:55.449Z,102601.06
2023-05-19T20:57:21.943Z,102599.34
2023-05-19T20:59:49.815Z,102595.84
2023-05-19T21:02:16.362Z,102605.09
2023-05-19T21:04:42.943Z,102601.41
2023-05-19T21:07:09.540Z,102598.47
2023-05-19T21:09:36.263Z,102600.59
2023-05-19T21:12:02.929Z,102595.72
2023-05-19T21:14:29.441Z,102594.63
2023-05-19T21:16:56.943Z,102600.53
2023-05-19T21:19:23.581Z,102606.00
2023-05-19T21:21:50.135Z,102604.31
2023-05-19T21:24:16.616Z,102598.81
2023-05-19T21:26:43.414Z,102599.22
2023-05-19T21:29:10.384Z,102600.56
2023-05-19T21:31:37.400Z,102606.59
2023-05-19T21:34:04.696Z,102602.72
2023-05-19T21:36:31.807Z,102605.56
2023-05-19T21:38:58.345Z,102600.94
2023-05-19T21:41:24.869Z,102612.66
2023-05-19T21:43:51.465Z,102603.22
2023-05-19T21:46:18.097Z,102614.16
2023-05-19T21:48:45.396Z,102608.06
2023-05-19T21:51:11.949Z,102609.19
2023-05-19T21:53:39.513Z,102614.16
2023-05-19T21:56:06.294Z,102616.53
2023-05-19T21:58:32.957Z,102615.81
2023-05-19T22:01:00.830Z,102621.75
2023-05-19T22:03:27.695Z,102625.19
2023-05-19T22:05:56.208Z,102620.00
2023-05-19T22:08:23.414Z,102619.78
2023-05-19T22:10:51.753Z,102620.66
2023-05-19T22:13:19.054Z,102611.00
2023-05-19T22:15:45.843Z,102606.78
2023-05-19T22:18:12.810Z,102597.88
2023-05-19T22:20:39.594Z,102601.91
2023-05-19T22:23:06.180Z,102603.88
2023-05-19T22:25:33.049Z,102600.47
2023-05-19T22:28:01.245Z,102597.25
2023-05-19T22:30:27.851Z,102601.78
2023-05-19T22:32:54.398Z,102609.25
2023-05-19T22:35:21.517Z,102604.41
2023-05-19T22:37:48.100Z,102603.72
2023-05-19T22:40:14.651Z,102605.13
2023-05-19T22:42:41.313Z,102613.75
2023-05-19T22:45:10.672Z,102610.50
2023-05-19T22:47:37.236Z,102615.91
2023-05-19T22:50:04.128Z,102616.28
2023-05-19T22:52:30.688Z,102618.53
2023-05-19T22:54:57.152Z,102622.63
2023-05-19T22:57:23.641Z,102620.97
2023-05-19T22:59:50.110Z,102619.19
2023-05-19T23:02:16.750Z,102614.75
2023-05-19T23:04:43.915Z,102620.19
2023-05-19T23:07:10.637Z,102618.56
2023-05-19T23:09:37.138Z,102622.81
2023-05-19T23:12:03.800Z,102623.53
2023-05-19T23:14:31.563Z,102628.41
2023-05-19T23:16:58.126Z,102619.38
2023-05-19T23:19:24.713Z,102622.13
2023-05-19T23:21:51.344Z,102623.13
2023-05-19T23:24:17.864Z,102622.34
2023-05-19T23:26:44.483Z,102619.81
2023-05-19T23:29:12.924Z,102617.59
2023-05-19T23:31:41.070Z,102621.34
2023-05-19T23:34:07.843Z,102617.22
2023-05-19T23:36:34.412Z,102615.75
2023-05-19T23:39:01.253Z,102617.16
2023-05-19T23:41:27.991Z,102612.06
2023-05-19T23:43:54.580Z,102614.06
2023-05-19T23:46:21.251Z,102609.41
2023-05-19T23:48:47.826Z,102619.41
2023-05-19T23:51:14.371Z,102620.28
2023-05-19T23:53:40.880Z,102619.59
2023-05-19T23:56:08.737Z,102615.13
2023-05-19T23:58:35.331Z,102626.22
